CheckWX is a tool to help pilots better visualize weather data.  It is not intended as a substitute for an official pre-flight weather briefing.

16:28:01 UTC

EGHI METAR
Southampton Airport
Southampton, United Kingdom
Current

38 mins ago

EGHI 161550Z VRB02KT 9999 BKN025 20/15 Q1021
Observed
Sep-16 @ 15:50 UTC
Wind
  • Variable at 2 KTS
Visibility
10,000+ meters
Flight Rules
MVFR
Cloud Levels
  • Broken at 2,500' AGL
Temperature
20°C / 68°F
Dewpoint
15°C / 59°F
Humidity
73%
Altimeter
30.15" Hg
Pressure
1020.92 hPa
Previous

1 hour ago

EGHI 161520Z 28004KT 210V320 9999 BKN022 20/15 Q1022
Observed
Sep-16 @ 15:20 UTC
Wind
  • 280° at 4 KTS
Visibility
10,000+ meters
Flight Rules
MVFR
Cloud Levels
  • Broken at 2,200' AGL
Temperature
20°C / 68°F
Dewpoint
15°C / 59°F
Humidity
73%
Altimeter
30.18" Hg
Pressure
1021.92 hPa
Previous

2 hours ago

EGHI 161450Z 30004KT 270V340 9999 BKN025 20/14 Q1022
Observed
Sep-16 @ 14:50 UTC
Wind
  • 300° at 4 KTS
Visibility
10,000+ meters
Flight Rules
MVFR
Cloud Levels
  • Broken at 2,500' AGL
Temperature
20°C / 68°F
Dewpoint
14°C / 57°F
Humidity
69%
Altimeter
30.18" Hg
Pressure
1021.92 hPa